sensor_id;sensor_type;location;lat;lon;timestamp;P1;durP1;ratioP1;P2;durP2;ratioP2
65387;SDS011;51992;53.528;49.474;2023-05-07T00:00:37;6.32;;;3.75;;
65387;SDS011;51992;53.528;49.474;2023-05-07T00:03:03;7.65;;;3.85;;
65387;SDS011;51992;53.528;49.474;2023-05-07T00:05:28;6.32;;;4.45;;
65387;SDS011;51992;53.528;49.474;2023-05-07T00:07:54;8.75;;;4.57;;
65387;SDS011;51992;53.528;49.474;2023-05-07T00:10:20;6.80;;;3.90;;
65387;SDS011;51992;53.528;49.474;2023-05-07T00:12:46;8.88;;;4.78;;
65387;SDS011;51992;53.528;49.474;2023-05-07T00:15:12;9.50;;;4.93;;
65387;SDS011;51992;53.528;49.474;2023-05-07T00:17:38;15.70;;;5.97;;
65387;SDS011;51992;53.528;49.474;2023-05-07T00:20:04;13.02;;;6.43;;
65387;SDS011;51992;53.528;49.474;2023-05-07T00:22:30;14.85;;;7.18;;
65387;SDS011;51992;53.528;49.474;2023-05-07T00:24:56;18.20;;;7.32;;
65387;SDS011;51992;53.528;49.474;2023-05-07T00:27:22;16.77;;;7.45;;
65387;SDS011;51992;53.528;49.474;2023-05-07T00:29:48;17.45;;;7.70;;
65387;SDS011;51992;53.528;49.474;2023-05-07T00:32:14;19.55;;;7.38;;
65387;SDS011;51992;53.528;49.474;2023-05-07T00:34:40;21.23;;;8.02;;
65387;SDS011;51992;53.528;49.474;2023-05-07T00:37:05;24.80;;;10.18;;
65387;SDS011;51992;53.528;49.474;2023-05-07T00:39:33;12.77;;;5.75;;
65387;SDS011;51992;53.528;49.474;2023-05-07T00:41:59;6.65;;;3.40;;
65387;SDS011;51992;53.528;49.474;2023-05-07T00:44:26;6.28;;;2.60;;
65387;SDS011;51992;53.528;49.474;2023-05-07T00:46:52;3.25;;;2.60;;
65387;SDS011;51992;53.528;49.474;2023-05-07T00:49:18;6.63;;;3.20;;
65387;SDS011;51992;53.528;49.474;2023-05-07T00:51:43;5.57;;;3.10;;
65387;SDS011;51992;53.528;49.474;2023-05-07T00:54:10;5.68;;;2.55;;
65387;SDS011;51992;53.528;49.474;2023-05-07T00:56:36;3.05;;;2.40;;
65387;SDS011;51992;53.528;49.474;2023-05-07T00:59:03;6.57;;;4.00;;
65387;SDS011;51992;53.528;49.474;2023-05-07T01:01:29;10.00;;;5.00;;
65387;SDS011;51992;53.528;49.474;2023-05-07T01:03:55;9.95;;;4.50;;
65387;SDS011;51992;53.528;49.474;2023-05-07T01:06:21;8.95;;;4.32;;
65387;SDS011;51992;53.528;49.474;2023-05-07T01:08:48;8.70;;;4.22;;
65387;SDS011;51992;53.528;49.474;2023-05-07T01:11:16;17.27;;;7.43;;
65387;SDS011;51992;53.528;49.474;2023-05-07T01:13:42;15.48;;;7.15;;
65387;SDS011;51992;53.528;49.474;2023-05-07T01:16:08;17.75;;;7.90;;
65387;SDS011;51992;53.528;49.474;2023-05-07T01:18:34;19.80;;;8.82;;
65387;SDS011;51992;53.528;49.474;2023-05-07T01:21:00;24.55;;;7.10;;
65387;SDS011;51992;53.528;49.474;2023-05-07T01:23:27;23.48;;;8.18;;
65387;SDS011;51992;53.528;49.474;2023-05-07T01:25:53;20.98;;;8.32;;
65387;SDS011;51992;53.528;49.474;2023-05-07T01:28:19;15.80;;;6.55;;
65387;SDS011;51992;53.528;49.474;2023-05-07T01:30:46;6.65;;;4.35;;
65387;SDS011;51992;53.528;49.474;2023-05-07T01:33:13;18.38;;;7.80;;
65387;SDS011;51992;53.528;49.474;2023-05-07T01:35:41;15.65;;;8.27;;
65387;SDS011;51992;53.528;49.474;2023-05-07T01:38:09;19.17;;;10.10;;
65387;SDS011;51992;53.528;49.474;2023-05-07T01:40:35;19.83;;;10.38;;
65387;SDS011;51992;53.528;49.474;2023-05-07T01:43:03;20.67;;;9.82;;
65387;SDS011;51992;53.528;49.474;2023-05-07T01:45:30;23.05;;;10.38;;
65387;SDS011;51992;53.528;49.474;2023-05-07T01:47:58;19.10;;;10.93;;
65387;SDS011;51992;53.528;49.474;2023-05-07T01:50:24;17.70;;;9.35;;
65387;SDS011;51992;53.528;49.474;2023-05-07T01:52:50;22.05;;;10.85;;
65387;SDS011;51992;53.528;49.474;2023-05-07T01:55:17;18.63;;;8.07;;
65387;SDS011;51992;53.528;49.474;2023-05-07T01:57:43;22.38;;;8.68;;
65387;SDS011;51992;53.528;49.474;2023-05-07T02:00:09;22.40;;;9.35;;
65387;SDS011;51992;53.528;49.474;2023-05-07T02:02:35;22.25;;;10.38;;
65387;SDS011;51992;53.528;49.474;2023-05-07T02:05:00;14.98;;;8.60;;
65387;SDS011;51992;53.528;49.474;2023-05-07T02:07:27;21.42;;;10.20;;
65387;SDS011;51992;53.528;49.474;2023-05-07T02:09:53;15.68;;;9.13;;
65387;SDS011;51992;53.528;49.474;2023-05-07T02:12:20;19.00;;;9.75;;
65387;SDS011;51992;53.528;49.474;2023-05-07T02:14:46;13.52;;;8.65;;
65387;SDS011;51992;53.528;49.474;2023-05-07T02:17:12;17.98;;;9.00;;
65387;SDS011;51992;53.528;49.474;2023-05-07T02:19:38;16.33;;;8.85;;
65387;SDS011;51992;53.528;49.474;2023-05-07T02:22:04;15.35;;;8.52;;
65387;SDS011;51992;53.528;49.474;2023-05-07T02:24:29;17.17;;;7.93;;
65387;SDS011;51992;53.528;49.474;2023-05-07T02:26:55;15.40;;;7.40;;
65387;SDS011;51992;53.528;49.474;2023-05-07T02:29:21;13.52;;;6.30;;
65387;SDS011;51992;53.528;49.474;2023-05-07T02:31:47;20.92;;;7.72;;
65387;SDS011;51992;53.528;49.474;2023-05-07T02:34:16;15.40;;;7.63;;
65387;SDS011;51992;53.528;49.474;2023-05-07T02:36:42;13.77;;;7.28;;
65387;SDS011;51992;53.528;49.474;2023-05-07T02:39:08;16.30;;;6.68;;
65387;SDS011;51992;53.528;49.474;2023-05-07T02:41:34;15.10;;;6.80;;
65387;SDS011;51992;53.528;49.474;2023-05-07T02:44:00;18.55;;;7.45;;
65387;SDS011;51992;53.528;49.474;2023-05-07T02:46:25;17.45;;;6.85;;
65387;SDS011;51992;53.528;49.474;2023-05-07T02:48:51;16.42;;;6.78;;
65387;SDS011;51992;53.528;49.474;2023-05-07T02:51:19;23.73;;;8.25;;
65387;SDS011;51992;53.528;49.474;2023-05-07T02:53:45;18.48;;;6.78;;
65387;SDS011;51992;53.528;49.474;2023-05-07T02:56:11;9.90;;;5.50;;
65387;SDS011;51992;53.528;49.474;2023-05-07T02:58:37;6.78;;;4.30;;
65387;SDS011;51992;53.528;49.474;2023-05-07T03:01:08;7.80;;;3.80;;
65387;SDS011;51992;53.528;49.474;2023-05-07T03:03:34;6.10;;;3.63;;
65387;SDS011;51992;53.528;49.474;2023-05-07T03:06:00;13.90;;;5.63;;
65387;SDS011;51992;53.528;49.474;2023-05-07T03:08:26;10.50;;;3.60;;
65387;SDS011;51992;53.528;49.474;2023-05-07T03:10:51;8.35;;;3.53;;
65387;SDS011;51992;53.528;49.474;2023-05-07T03:13:17;7.13;;;3.70;;
65387;SDS011;51992;53.528;49.474;2023-05-07T03:15:43;7.32;;;3.25;;
65387;SDS011;51992;53.528;49.474;2023-05-07T03:18:09;4.10;;;3.30;;
65387;SDS011;51992;53.528;49.474;2023-05-07T03:20:35;7.00;;;3.53;;
65387;SDS011;51992;53.528;49.474;2023-05-07T03:23:02;6.75;;;3.25;;
65387;SDS011;51992;53.528;49.474;2023-05-07T03:25:28;4.10;;;2.42;;
65387;SDS011;51992;53.528;49.474;2023-05-07T03:27:55;6.00;;;2.83;;
65387;SDS011;51992;53.528;49.474;2023-05-07T03:30:21;6.72;;;3.35;;
65387;SDS011;51992;53.528;49.474;2023-05-07T03:32:47;5.85;;;3.72;;
65387;SDS011;51992;53.528;49.474;2023-05-07T03:35:13;9.73;;;3.80;;
65387;SDS011;51992;53.528;49.474;2023-05-07T03:37:39;12.80;;;4.10;;
65387;SDS011;51992;53.528;49.474;2023-05-07T03:40:05;9.18;;;4.32;;
65387;SDS011;51992;53.528;49.474;2023-05-07T03:42:31;4.70;;;3.17;;
65387;SDS011;51992;53.528;49.474;2023-05-07T03:44:57;4.28;;;2.10;;
65387;SDS011;51992;53.528;49.474;2023-05-07T03:47:23;6.35;;;2.47;;
65387;SDS011;51992;53.528;49.474;2023-05-07T03:49:49;8.73;;;3.60;;
65387;SDS011;51992;53.528;49.474;2023-05-07T03:52:15;5.60;;;2.80;;
65387;SDS011;51992;53.528;49.474;2023-05-07T03:54:41;11.23;;;3.90;;
65387;SDS011;51992;53.528;49.474;2023-05-07T03:57:07;11.55;;;4.22;;
65387;SDS011;51992;53.528;49.474;2023-05-07T03:59:33;6.90;;;3.40;;
65387;SDS011;51992;53.528;49.474;2023-05-07T04:01:59;6.60;;;2.90;;
65387;SDS011;51992;53.528;49.474;2023-05-07T04:04:24;9.25;;;2.90;;
65387;SDS011;51992;53.528;49.474;2023-05-07T04:06:50;5.95;;;3.85;;
65387;SDS011;51992;53.528;49.474;2023-05-07T04:09:16;8.27;;;4.40;;
65387;SDS011;51992;53.528;49.474;2023-05-07T04:11:42;9.35;;;4.72;;
65387;SDS011;51992;53.528;49.474;2023-05-07T04:14:08;3.55;;;2.60;;
65387;SDS011;51992;53.528;49.474;2023-05-07T04:16:34;5.07;;;2.90;;
65387;SDS011;51992;53.528;49.474;2023-05-07T04:19:00;6.40;;;3.10;;
65387;SDS011;51992;53.528;49.474;2023-05-07T04:21:26;6.47;;;3.35;;
65387;SDS011;51992;53.528;49.474;2023-05-07T04:23:52;4.47;;;2.50;;
65387;SDS011;51992;53.528;49.474;2023-05-07T04:26:18;4.20;;;2.88;;
65387;SDS011;51992;53.528;49.474;2023-05-07T04:28:43;4.57;;;1.88;;
65387;SDS011;51992;53.528;49.474;2023-05-07T04:31:09;4.78;;;2.50;;
65387;SDS011;51992;53.528;49.474;2023-05-07T04:33:35;4.70;;;2.28;;
65387;SDS011;51992;53.528;49.474;2023-05-07T04:36:01;3.90;;;2.15;;
65387;SDS011;51992;53.528;49.474;2023-05-07T04:38:28;11.65;;;2.83;;
65387;SDS011;51992;53.528;49.474;2023-05-07T04:40:55;9.77;;;2.92;;
65387;SDS011;51992;53.528;49.474;2023-05-07T04:43:21;5.57;;;2.70;;
65387;SDS011;51992;53.528;49.474;2023-05-07T04:45:47;3.20;;;1.55;;
65387;SDS011;51992;53.528;49.474;2023-05-07T04:48:14;8.07;;;2.42;;
65387;SDS011;51992;53.528;49.474;2023-05-07T04:50:40;5.18;;;2.63;;
65387;SDS011;51992;53.528;49.474;2023-05-07T04:53:06;6.40;;;2.63;;
65387;SDS011;51992;53.528;49.474;2023-05-07T04:55:32;7.07;;;2.83;;
65387;SDS011;51992;53.528;49.474;2023-05-07T04:57:58;7.95;;;2.72;;
65387;SDS011;51992;53.528;49.474;2023-05-07T05:00:25;2.83;;;1.45;;
65387;SDS011;51992;53.528;49.474;2023-05-07T05:02:51;2.47;;;1.33;;
65387;SDS011;51992;53.528;49.474;2023-05-07T05:05:17;6.85;;;1.67;;
65387;SDS011;51992;53.528;49.474;2023-05-07T05:07:43;5.28;;;1.67;;
65387;SDS011;51992;53.528;49.474;2023-05-07T05:10:09;7.82;;;1.98;;
65387;SDS011;51992;53.528;49.474;2023-05-07T05:12:35;4.47;;;2.00;;
65387;SDS011;51992;53.528;49.474;2023-05-07T05:15:00;4.88;;;2.63;;
65387;SDS011;51992;53.528;49.474;2023-05-07T05:17:26;12.20;;;3.45;;
65387;SDS011;51992;53.528;49.474;2023-05-07T05:19:52;6.55;;;2.58;;
65387;SDS011;51992;53.528;49.474;2023-05-07T05:22:18;9.35;;;1.60;;
65387;SDS011;51992;53.528;49.474;2023-05-07T05:24:43;8.65;;;2.55;;
65387;SDS011;51992;53.528;49.474;2023-05-07T05:27:09;2.38;;;1.17;;
65387;SDS011;51992;53.528;49.474;2023-05-07T05:29:35;2.13;;;1.25;;
65387;SDS011;51992;53.528;49.474;2023-05-07T05:32:01;3.72;;;1.13;;
65387;SDS011;51992;53.528;49.474;2023-05-07T05:34:26;2.47;;;1.60;;
65387;SDS011;51992;53.528;49.474;2023-05-07T05:36:52;3.55;;;1.90;;
65387;SDS011;51992;53.528;49.474;2023-05-07T05:39:18;3.75;;;1.92;;
65387;SDS011;51992;53.528;49.474;2023-05-07T05:41:44;3.08;;;1.35;;
65387;SDS011;51992;53.528;49.474;2023-05-07T05:44:10;6.63;;;2.95;;
65387;SDS011;51992;53.528;49.474;2023-05-07T05:46:36;4.57;;;1.85;;
65387;SDS011;51992;53.528;49.474;2023-05-07T05:49:01;8.77;;;2.33;;
65387;SDS011;51992;53.528;49.474;2023-05-07T05:51:27;7.70;;;3.90;;
65387;SDS011;51992;53.528;49.474;2023-05-07T05:53:53;1.40;;;1.30;;
65387;SDS011;51992;53.528;49.474;2023-05-07T05:56:19;1.00;;;0.77;;
65387;SDS011;51992;53.528;49.474;2023-05-07T05:58:45;3.15;;;1.40;;
65387;SDS011;51992;53.528;49.474;2023-05-07T06:01:11;3.60;;;1.05;;
65387;SDS011;51992;53.528;49.474;2023-05-07T06:03:37;2.67;;;1.20;;
65387;SDS011;51992;53.528;49.474;2023-05-07T06:06:03;2.92;;;0.98;;
65387;SDS011;51992;53.528;49.474;2023-05-07T06:08:29;5.25;;;1.70;;
65387;SDS011;51992;53.528;49.474;2023-05-07T06:10:55;5.72;;;2.08;;
65387;SDS011;51992;53.528;49.474;2023-05-07T06:13:21;2.47;;;1.20;;
65387;SDS011;51992;53.528;49.474;2023-05-07T06:15:46;6.03;;;2.00;;
65387;SDS011;51992;53.528;49.474;2023-05-07T06:18:12;8.52;;;3.05;;
65387;SDS011;51992;53.528;49.474;2023-05-07T06:20:38;6.82;;;1.75;;
65387;SDS011;51992;53.528;49.474;2023-05-07T06:23:04;6.25;;;2.17;;
65387;SDS011;51992;53.528;49.474;2023-05-07T06:25:29;7.15;;;3.60;;
65387;SDS011;51992;53.528;49.474;2023-05-07T06:27:55;9.88;;;3.55;;
65387;SDS011;51992;53.528;49.474;2023-05-07T06:30:21;8.38;;;3.28;;
65387;SDS011;51992;53.528;49.474;2023-05-07T06:32:47;7.80;;;1.92;;
65387;SDS011;51992;53.528;49.474;2023-05-07T06:35:12;2.10;;;1.08;;
65387;SDS011;51992;53.528;49.474;2023-05-07T06:37:38;1.80;;;0.95;;
65387;SDS011;51992;53.528;49.474;2023-05-07T06:40:05;0.75;;;0.75;;
65387;SDS011;51992;53.528;49.474;2023-05-07T06:42:32;4.20;;;1.58;;
65387;SDS011;51992;53.528;49.474;2023-05-07T06:44:58;1.15;;;0.90;;
65387;SDS011;51992;53.528;49.474;2023-05-07T06:47:24;2.80;;;1.27;;
65387;SDS011;51992;53.528;49.474;2023-05-07T06:49:49;1.23;;;0.90;;
65387;SDS011;51992;53.528;49.474;2023-05-07T06:52:15;28.92;;;3.97;;
65387;SDS011;51992;53.528;49.474;2023-05-07T06:54:41;7.05;;;1.67;;
65387;SDS011;51992;53.528;49.474;2023-05-07T06:57:07;3.28;;;1.67;;
65387;SDS011;51992;53.528;49.474;2023-05-07T06:59:33;3.22;;;1.00;;
65387;SDS011;51992;53.528;49.474;2023-05-07T07:01:58;6.90;;;2.75;;
65387;SDS011;51992;53.528;49.474;2023-05-07T07:04:24;12.15;;;3.40;;
65387;SDS011;51992;53.528;49.474;2023-05-07T07:06:51;4.50;;;1.90;;
65387;SDS011;51992;53.528;49.474;2023-05-07T07:09:17;5.57;;;1.63;;
65387;SDS011;51992;53.528;49.474;2023-05-07T07:11:43;4.88;;;2.45;;
65387;SDS011;51992;53.528;49.474;2023-05-07T07:14:09;2.63;;;1.20;;
65387;SDS011;51992;53.528;49.474;2023-05-07T07:16:35;2.90;;;1.73;;
65387;SDS011;51992;53.528;49.474;2023-05-07T07:19:00;4.15;;;1.10;;
65387;SDS011;51992;53.528;49.474;2023-05-07T07:21:26;4.22;;;1.17;;
65387;SDS011;51992;53.528;49.474;2023-05-07T07:23:52;9.38;;;2.28;;
65387;SDS011;51992;53.528;49.474;2023-05-07T07:26:18;1.67;;;0.95;;
65387;SDS011;51992;53.528;49.474;2023-05-07T07:28:44;4.78;;;0.85;;
65387;SDS011;51992;53.528;49.474;2023-05-07T07:31:10;2.65;;;0.85;;
65387;SDS011;51992;53.528;49.474;2023-05-07T07:33:36;1.45;;;0.90;;
65387;SDS011;51992;53.528;49.474;2023-05-07T07:36:02;3.17;;;1.30;;
65387;SDS011;51992;53.528;49.474;2023-05-07T07:38:28;0.85;;;0.60;;
65387;SDS011;51992;53.528;49.474;2023-05-07T07:40:54;1.35;;;1.00;;
65387;SDS011;51992;53.528;49.474;2023-05-07T07:43:20;2.78;;;1.10;;
65387;SDS011;51992;53.528;49.474;2023-05-07T07:45:46;3.88;;;1.58;;
65387;SDS011;51992;53.528;49.474;2023-05-07T07:48:11;10.05;;;2.80;;
65387;SDS011;51992;53.528;49.474;2023-05-07T07:50:38;4.57;;;1.05;;
65387;SDS011;51992;53.528;49.474;2023-05-07T07:53:03;0.90;;;0.65;;
65387;SDS011;51992;53.528;49.474;2023-05-07T07:55:29;1.23;;;1.02;;
65387;SDS011;51992;53.528;49.474;2023-05-07T07:57:56;6.00;;;2.97;;
65387;SDS011;51992;53.528;49.474;2023-05-07T08:00:22;1.65;;;1.10;;
65387;SDS011;51992;53.528;49.474;2023-05-07T08:02:48;1.10;;;0.98;;
65387;SDS011;51992;53.528;49.474;2023-05-07T08:05:14;6.15;;;1.70;;
65387;SDS011;51992;53.528;49.474;2023-05-07T08:07:40;4.30;;;1.38;;
65387;SDS011;51992;53.528;49.474;2023-05-07T08:10:06;6.47;;;1.83;;
65387;SDS011;51992;53.528;49.474;2023-05-07T08:12:32;9.55;;;4.07;;
65387;SDS011;51992;53.528;49.474;2023-05-07T08:14:58;3.72;;;1.10;;
65387;SDS011;51992;53.528;49.474;2023-05-07T08:17:24;1.25;;;1.15;;
65387;SDS011;51992;53.528;49.474;2023-05-07T08:19:50;2.05;;;0.80;;
65387;SDS011;51992;53.528;49.474;2023-05-07T08:22:16;5.10;;;2.45;;
65387;SDS011;51992;53.528;49.474;2023-05-07T08:24:43;17.50;;;2.97;;
65387;SDS011;51992;53.528;49.474;2023-05-07T08:27:09;3.22;;;1.70;;
65387;SDS011;51992;53.528;49.474;2023-05-07T08:29:34;8.05;;;2.97;;
65387;SDS011;51992;53.528;49.474;2023-05-07T08:32:01;7.38;;;1.35;;
65387;SDS011;51992;53.528;49.474;2023-05-07T08:34:26;3.03;;;0.80;;
65387;SDS011;51992;53.528;49.474;2023-05-07T08:36:52;8.63;;;1.35;;
65387;SDS011;51992;53.528;49.474;2023-05-07T08:39:18;4.43;;;2.58;;
65387;SDS011;51992;53.528;49.474;2023-05-07T08:41:44;9.07;;;2.40;;
65387;SDS011;51992;53.528;49.474;2023-05-07T08:44:11;5.55;;;2.67;;
65387;SDS011;51992;53.528;49.474;2023-05-07T08:46:37;9.63;;;3.55;;
65387;SDS011;51992;53.528;49.474;2023-05-07T08:49:04;3.85;;;1.33;;
65387;SDS011;51992;53.528;49.474;2023-05-07T08:51:31;3.50;;;1.40;;
65387;SDS011;51992;53.528;49.474;2023-05-07T08:53:57;4.95;;;2.08;;
65387;SDS011;51992;53.528;49.474;2023-05-07T08:56:23;1.70;;;1.13;;
65387;SDS011;51992;53.528;49.474;2023-05-07T08:58:49;3.40;;;1.52;;
65387;SDS011;51992;53.528;49.474;2023-05-07T09:01:16;6.43;;;2.33;;
65387;SDS011;51992;53.528;49.474;2023-05-07T09:03:45;6.03;;;1.58;;
65387;SDS011;51992;53.528;49.474;2023-05-07T09:06:11;3.70;;;2.05;;
65387;SDS011;51992;53.528;49.474;2023-05-07T09:08:37;2.33;;;1.20;;
65387;SDS011;51992;53.528;49.474;2023-05-07T09:11:03;4.45;;;1.42;;
65387;SDS011;51992;53.528;49.474;2023-05-07T09:13:28;1.20;;;1.10;;
65387;SDS011;51992;53.528;49.474;2023-05-07T09:15:55;17.35;;;1.90;;
65387;SDS011;51992;53.528;49.474;2023-05-07T09:18:21;1.23;;;1.13;;
65387;SDS011;51992;53.528;49.474;2023-05-07T09:20:47;3.65;;;1.35;;
65387;SDS011;51992;53.528;49.474;2023-05-07T09:23:12;3.70;;;1.30;;
65387;SDS011;51992;53.528;49.474;2023-05-07T09:25:39;7.88;;;1.42;;
65387;SDS011;51992;53.528;49.474;2023-05-07T09:28:05;1.67;;;1.17;;
65387;SDS011;51992;53.528;49.474;2023-05-07T09:30:35;4.82;;;1.65;;
65387;SDS011;51992;53.528;49.474;2023-05-07T09:33:02;2.65;;;1.38;;
65387;SDS011;51992;53.528;49.474;2023-05-07T09:35:29;9.63;;;2.30;;
65387;SDS011;51992;53.528;49.474;2023-05-07T09:37:55;2.00;;;0.80;;
65387;SDS011;51992;53.528;49.474;2023-05-07T09:40:25;3.35;;;1.48;;
65387;SDS011;51992;53.528;49.474;2023-05-07T09:42:51;3.25;;;1.10;;
65387;SDS011;51992;53.528;49.474;2023-05-07T09:47:49;2.80;;;1.17;;
65387;SDS011;51992;53.528;49.474;2023-05-07T09:50:18;7.32;;;1.98;;
65387;SDS011;51992;53.528;49.474;2023-05-07T09:52:44;2.33;;;1.40;;
65387;SDS011;51992;53.528;49.474;2023-05-07T09:55:10;2.17;;;1.10;;
65387;SDS011;51992;53.528;49.474;2023-05-07T09:57:37;8.80;;;2.10;;
65387;SDS011;51992;53.528;49.474;2023-05-07T10:00:04;4.05;;;1.90;;
65387;SDS011;51992;53.528;49.474;2023-05-07T10:02:31;7.80;;;2.45;;
65387;SDS011;51992;53.528;49.474;2023-05-07T10:04:57;9.25;;;3.55;;
65387;SDS011;51992;53.528;49.474;2023-05-07T10:07:25;7.80;;;3.25;;
65387;SDS011;51992;53.528;49.474;2023-05-07T10:09:51;2.08;;;1.52;;
65387;SDS011;51992;53.528;49.474;2023-05-07T10:12:17;1.65;;;1.30;;
65387;SDS011;51992;53.528;49.474;2023-05-07T10:14:44;4.45;;;1.63;;
65387;SDS011;51992;53.528;49.474;2023-05-07T10:17:10;7.38;;;2.80;;
65387;SDS011;51992;53.528;49.474;2023-05-07T10:19:37;4.18;;;1.67;;
65387;SDS011;51992;53.528;49.474;2023-05-07T10:22:05;2.88;;;1.30;;
65387;SDS011;51992;53.528;49.474;2023-05-07T10:24:32;5.47;;;1.70;;
65387;SDS011;51992;53.528;49.474;2023-05-07T10:26:59;4.38;;;2.20;;
65387;SDS011;51992;53.528;49.474;2023-05-07T10:34:45;4.43;;;2.90;;
65387;SDS011;51992;53.528;49.474;2023-05-07T10:37:12;5.32;;;2.55;;
65387;SDS011;51992;53.528;49.474;2023-05-07T10:39:38;7.70;;;2.80;;
65387;SDS011;51992;53.528;49.474;2023-05-07T10:42:11;3.95;;;2.15;;
65387;SDS011;51992;53.528;49.474;2023-05-07T10:44:37;13.77;;;3.58;;
65387;SDS011;51992;53.528;49.474;2023-05-07T10:47:04;8.38;;;3.70;;
65387;SDS011;51992;53.528;49.474;2023-05-07T10:49:30;11.93;;;2.70;;
65387;SDS011;51992;53.528;49.474;2023-05-07T10:54:44;9.88;;;3.17;;
65387;SDS011;51992;53.528;49.474;2023-05-07T10:59:55;10.32;;;4.63;;
65387;SDS011;51992;53.528;49.474;2023-05-07T11:02:20;8.85;;;3.00;;
65387;SDS011;51992;53.528;49.474;2023-05-07T11:05:01;3.75;;;2.30;;
65387;SDS011;51992;53.528;49.474;2023-05-07T11:07:32;4.03;;;1.35;;
65387;SDS011;51992;53.528;49.474;2023-05-07T11:17:28;8.05;;;2.63;;
65387;SDS011;51992;53.528;49.474;2023-05-07T11:19:57;10.32;;;2.10;;
65387;SDS011;51992;53.528;49.474;2023-05-07T11:22:41;4.80;;;1.98;;
65387;SDS011;51992;53.528;49.474;2023-05-07T11:25:07;2.25;;;1.60;;
65387;SDS011;51992;53.528;49.474;2023-05-07T11:27:33;6.93;;;1.92;;
65387;SDS011;51992;53.528;49.474;2023-05-07T11:29:58;5.15;;;3.00;;
65387;SDS011;51992;53.528;49.474;2023-05-07T11:32:27;4.38;;;2.22;;
65387;SDS011;51992;53.528;49.474;2023-05-07T11:34:54;3.55;;;1.92;;
65387;SDS011;51992;53.528;49.474;2023-05-07T11:37:20;7.20;;;2.83;;
65387;SDS011;51992;53.528;49.474;2023-05-07T11:39:46;7.55;;;2.70;;
65387;SDS011;51992;53.528;49.474;2023-05-07T11:44:53;7.97;;;4.15;;
65387;SDS011;51992;53.528;49.474;2023-05-07T11:47:19;5.20;;;2.78;;
65387;SDS011;51992;53.528;49.474;2023-05-07T11:49:52;5.05;;;1.98;;
65387;SDS011;51992;53.528;49.474;2023-05-07T11:52:19;5.72;;;2.60;;
65387;SDS011;51992;53.528;49.474;2023-05-07T11:54:57;2.63;;;1.30;;
65387;SDS011;51992;53.528;49.474;2023-05-07T11:57:24;9.68;;;2.58;;
65387;SDS011;51992;53.528;49.474;2023-05-07T11:59:56;5.78;;;3.50;;
65387;SDS011;51992;53.528;49.474;2023-05-07T12:02:22;8.60;;;4.05;;
65387;SDS011;51992;53.528;49.474;2023-05-07T12:04:50;6.32;;;3.28;;
65387;SDS011;51992;53.528;49.474;2023-05-07T12:07:16;8.13;;;3.15;;
65387;SDS011;51992;53.528;49.474;2023-05-07T12:09:43;10.70;;;2.45;;
65387;SDS011;51992;53.528;49.474;2023-05-07T12:12:10;16.08;;;6.03;;
65387;SDS011;51992;53.528;49.474;2023-05-07T12:14:39;6.63;;;2.85;;
65387;SDS011;51992;53.528;49.474;2023-05-07T12:17:06;9.60;;;2.10;;
65387;SDS011;51992;53.528;49.474;2023-05-07T12:19:32;2.70;;;1.88;;
65387;SDS011;51992;53.528;49.474;2023-05-07T12:21:58;4.28;;;2.42;;
65387;SDS011;51992;53.528;49.474;2023-05-07T12:24:25;10.05;;;4.18;;
65387;SDS011;51992;53.528;49.474;2023-05-07T12:26:51;11.98;;;2.78;;
65387;SDS011;51992;53.528;49.474;2023-05-07T12:29:16;4.82;;;2.75;;
65387;SDS011;51992;53.528;49.474;2023-05-07T12:31:43;5.65;;;2.47;;
65387;SDS011;51992;53.528;49.474;2023-05-07T12:34:10;7.80;;;3.88;;
65387;SDS011;51992;53.528;49.474;2023-05-07T12:36:37;3.85;;;2.70;;
65387;SDS011;51992;53.528;49.474;2023-05-07T12:39:07;12.30;;;2.28;;
65387;SDS011;51992;53.528;49.474;2023-05-07T12:44:24;5.90;;;2.20;;
65387;SDS011;51992;53.528;49.474;2023-05-07T12:46:50;3.58;;;2.15;;
65387;SDS011;51992;53.528;49.474;2023-05-07T12:49:16;7.15;;;3.20;;
65387;SDS011;51992;53.528;49.474;2023-05-07T12:51:43;13.68;;;5.82;;
65387;SDS011;51992;53.528;49.474;2023-05-07T12:54:09;4.25;;;2.67;;
65387;SDS011;51992;53.528;49.474;2023-05-07T12:56:35;9.10;;;2.78;;
65387;SDS011;51992;53.528;49.474;2023-05-07T12:59:01;14.38;;;4.97;;
65387;SDS011;51992;53.528;49.474;2023-05-07T13:01:31;5.70;;;2.75;;
65387;SDS011;51992;53.528;49.474;2023-05-07T13:04:00;7.35;;;3.20;;
65387;SDS011;51992;53.528;49.474;2023-05-07T13:06:26;10.02;;;4.45;;
65387;SDS011;51992;53.528;49.474;2023-05-07T13:08:52;7.18;;;2.92;;
65387;SDS011;51992;53.528;49.474;2023-05-07T13:11:18;3.30;;;2.00;;
65387;SDS011;51992;53.528;49.474;2023-05-07T13:13:44;2.75;;;1.83;;
65387;SDS011;51992;53.528;49.474;2023-05-07T13:16:10;1.52;;;1.00;;
65387;SDS011;51992;53.528;49.474;2023-05-07T13:18:37;3.58;;;1.58;;
65387;SDS011;51992;53.528;49.474;2023-05-07T13:21:03;1.77;;;1.65;;
65387;SDS011;51992;53.528;49.474;2023-05-07T13:23:29;6.30;;;2.33;;
65387;SDS011;51992;53.528;49.474;2023-05-07T13:25:55;6.45;;;2.75;;
65387;SDS011;51992;53.528;49.474;2023-05-07T13:28:22;9.07;;;4.43;;
65387;SDS011;51992;53.528;49.474;2023-05-07T13:30:48;7.07;;;3.35;;
65387;SDS011;51992;53.528;49.474;2023-05-07T13:33:14;9.82;;;3.60;;
65387;SDS011;51992;53.528;49.474;2023-05-07T13:35:41;6.05;;;2.80;;
65387;SDS011;51992;53.528;49.474;2023-05-07T13:38:07;6.80;;;3.97;;
65387;SDS011;51992;53.528;49.474;2023-05-07T13:40:33;5.50;;;3.53;;
65387;SDS011;51992;53.528;49.474;2023-05-07T13:42:59;8.57;;;3.63;;
65387;SDS011;51992;53.528;49.474;2023-05-07T13:45:30;15.00;;;4.45;;
65387;SDS011;51992;53.528;49.474;2023-05-07T13:47:56;9.23;;;3.85;;
65387;SDS011;51992;53.528;49.474;2023-05-07T13:50:22;7.40;;;4.22;;
65387;SDS011;51992;53.528;49.474;2023-05-07T13:52:48;9.48;;;3.00;;
65387;SDS011;51992;53.528;49.474;2023-05-07T13:55:19;5.80;;;2.97;;
65387;SDS011;51992;53.528;49.474;2023-05-07T13:57:46;4.63;;;2.47;;
65387;SDS011;51992;53.528;49.474;2023-05-07T14:00:12;3.10;;;2.30;;
65387;SDS011;51992;53.528;49.474;2023-05-07T14:02:38;4.35;;;2.83;;
65387;SDS011;51992;53.528;49.474;2023-05-07T14:05:04;8.02;;;3.80;;
65387;SDS011;51992;53.528;49.474;2023-05-07T14:07:30;4.15;;;2.00;;
65387;SDS011;51992;53.528;49.474;2023-05-07T14:09:56;5.50;;;2.63;;
65387;SDS011;51992;53.528;49.474;2023-05-07T14:12:22;4.30;;;2.35;;
65387;SDS011;51992;53.528;49.474;2023-05-07T14:14:48;5.15;;;2.15;;
65387;SDS011;51992;53.528;49.474;2023-05-07T14:17:18;3.00;;;2.78;;
65387;SDS011;51992;53.528;49.474;2023-05-07T14:19:43;12.32;;;4.57;;
65387;SDS011;51992;53.528;49.474;2023-05-07T14:22:09;6.53;;;3.55;;
65387;SDS011;51992;53.528;49.474;2023-05-07T14:24:35;3.83;;;2.65;;
65387;SDS011;51992;53.528;49.474;2023-05-07T14:27:02;2.95;;;2.13;;
65387;SDS011;51992;53.528;49.474;2023-05-07T14:29:28;12.10;;;5.28;;
65387;SDS011;51992;53.528;49.474;2023-05-07T14:31:53;10.57;;;5.57;;
65387;SDS011;51992;53.528;49.474;2023-05-07T14:34:19;10.23;;;4.00;;
65387;SDS011;51992;53.528;49.474;2023-05-07T14:36:45;3.63;;;2.35;;
65387;SDS011;51992;53.528;49.474;2023-05-07T14:39:11;8.93;;;3.80;;
65387;SDS011;51992;53.528;49.474;2023-05-07T14:41:37;8.98;;;3.10;;
65387;SDS011;51992;53.528;49.474;2023-05-07T14:44:03;7.38;;;2.20;;
65387;SDS011;51992;53.528;49.474;2023-05-07T14:46:29;4.82;;;1.60;;
65387;SDS011;51992;53.528;49.474;2023-05-07T14:48:56;3.13;;;2.30;;
65387;SDS011;51992;53.528;49.474;2023-05-07T14:51:22;4.50;;;2.53;;